createdAt,value
2023-02-05T00:00:02.494Z,0
2023-02-05T00:05:02.481Z,0
2023-02-05T00:10:02.643Z,0
2023-02-05T00:15:02.416Z,0
2023-02-05T00:20:02.490Z,0
2023-02-05T00:25:02.711Z,0
2023-02-05T00:30:02.511Z,0
2023-02-05T00:35:02.517Z,0
2023-02-05T00:40:02.490Z,0
2023-02-05T00:45:02.648Z,0
2023-02-05T00:50:02.482Z,0
2023-02-05T00:55:03.054Z,0
2023-02-05T01:00:02.672Z,0
2023-02-05T01:05:02.518Z,0
2023-02-05T01:10:02.500Z,0
2023-02-05T01:15:02.508Z,0
2023-02-05T01:20:02.699Z,0
2023-02-05T01:25:02.566Z,0
2023-02-05T01:30:02.654Z,0
2023-02-05T01:35:02.696Z,0
2023-02-05T01:40:02.549Z,0
2023-02-05T01:45:02.529Z,0
2023-02-05T01:50:02.525Z,0
2023-02-05T01:55:02.728Z,0
2023-02-05T02:00:02.638Z,0
2023-02-05T02:05:02.582Z,0
2023-02-05T02:10:02.645Z,0
2023-02-05T02:15:02.619Z,0
2023-02-05T02:20:02.562Z,0
2023-02-05T02:25:02.585Z,0
2023-02-05T02:30:02.851Z,0
2023-02-05T02:35:02.694Z,0
2023-02-05T02:40:02.597Z,0
2023-02-05T02:45:02.625Z,0
2023-02-05T02:50:02.794Z,0
2023-02-05T02:55:02.647Z,0
2023-02-05T03:00:02.638Z,0
2023-02-05T03:05:02.789Z,0
2023-02-05T03:10:02.642Z,0
2023-02-05T03:15:02.636Z,0
2023-02-05T03:20:02.643Z,0
2023-02-05T03:25:02.823Z,0
2023-02-05T03:30:02.664Z,0
2023-02-05T03:35:02.702Z,0
2023-02-05T03:40:02.711Z,0
2023-02-05T03:45:02.673Z,0
2023-02-05T03:50:02.684Z,0
2023-02-05T03:55:02.791Z,0
2023-02-05T04:00:02.876Z,0
2023-02-05T04:05:02.726Z,0
2023-02-05T04:10:02.680Z,0
2023-02-05T04:15:02.714Z,0
2023-02-05T04:20:02.944Z,0
2023-02-05T04:25:02.723Z,0
2023-02-05T04:30:02.759Z,0
2023-02-05T04:35:02.908Z,0
2023-02-05T04:40:02.795Z,0
2023-02-05T04:45:02.790Z,0
2023-02-05T04:50:02.836Z,0
2023-02-05T04:55:02.758Z,0
2023-02-05T05:00:02.807Z,0
2023-02-05T05:05:02.709Z,0
2023-02-05T05:10:02.990Z,0
2023-02-05T05:15:02.768Z,0
2023-02-05T05:20:02.795Z,0
2023-02-05T05:25:02.992Z,0
2023-02-05T05:30:02.881Z,0
2023-02-05T05:35:02.980Z,0
2023-02-05T05:40:02.773Z,0
2023-02-05T05:45:02.926Z,0
2023-02-05T05:50:02.815Z,0
2023-02-05T05:55:02.777Z,0
2023-02-05T06:00:02.909Z,0
2023-02-05T06:05:02.793Z,0
2023-02-05T06:10:02.796Z,0
2023-02-05T06:15:02.789Z,0
2023-02-05T06:20:03.161Z,0
2023-02-05T06:25:02.979Z,0
2023-02-05T06:30:01.255Z,0
2023-02-05T06:35:01.241Z,0
2023-02-05T06:40:01.266Z,0
2023-02-05T06:45:01.415Z,0
2023-02-05T06:50:01.252Z,0
2023-02-05T06:55:01.270Z,0
2023-02-05T07:00:01.449Z,0
2023-02-05T07:05:01.322Z,0
2023-02-05T07:10:01.362Z,0
2023-02-05T07:15:01.381Z,0
2023-02-05T07:20:01.419Z,0.2033862433862434
2023-02-05T07:25:03.278Z,0.3787936507936508
2023-02-05T07:30:01.434Z,0.36554497354497356
2023-02-05T07:35:01.404Z,0.49237037037037046
2023-02-05T07:40:01.331Z,0.5411534391534392
2023-02-05T07:45:01.328Z,0.808867724867725
2023-02-05T07:50:01.295Z,1.06005291005291
2023-02-05T07:55:01.581Z,1.3332804232804232
2023-02-05T08:00:01.446Z,1.6471851851851853
2023-02-05T08:05:01.417Z,1.9753968253968257
2023-02-05T08:10:01.469Z,2.3162857142857143
2023-02-05T08:15:01.367Z,2.65631746031746
2023-02-05T08:20:01.326Z,2.876338624338625
2023-02-05T08:25:01.411Z,2.9891640211640214
2023-02-05T08:30:01.783Z,3.1649100529100527
2023-02-05T08:35:01.388Z,3.7004444444444444
2023-02-05T08:40:01.366Z,4.388285714285714
2023-02-05T08:45:01.581Z,5.18378835978836
2023-02-05T08:50:01.383Z,6.043121693121694
2023-02-05T08:55:01.419Z,6.888656084656085
2023-02-05T09:00:01.506Z,7.658560846560847
2023-02-05T09:05:08.746Z,8.235650793650793
2023-02-05T09:10:01.673Z,8.509089947089947
2023-02-05T09:15:01.343Z,8.695164021164022
2023-02-05T09:20:01.593Z,8.878349206349206
2023-02-05T09:25:01.474Z,8.356063492063493
2023-02-05T09:30:01.436Z,7.556349206349207
2023-02-05T09:35:01.565Z,7.61873015873016
2023-02-05T09:40:19.872Z,8.092063492063492
2023-02-05T09:45:01.407Z,8.44931216931217
2023-02-05T09:50:01.473Z,8.473587301587301
2023-02-05T09:55:01.682Z,8.822645502645504
2023-02-05T10:00:01.483Z,9.396539682539682
2023-02-05T10:05:01.463Z,10.372063492063493
2023-02-05T10:10:01.618Z,11.902698412698413
2023-02-05T10:15:01.496Z,13.330306878306878
2023-02-05T10:20:01.471Z,14.5035873015873
2023-02-05T10:25:01.618Z,15.171640211640211
2023-02-05T10:30:01.497Z,15.623449735449736
2023-02-05T10:35:01.453Z,15.915661375661374
2023-02-05T10:40:01.616Z,15.599682539682542
2023-02-05T10:45:01.452Z,15.372550264550267
2023-02-05T10:50:01.491Z,15.126306878306877
2023-02-05T10:55:01.526Z,14.458465608465609
2023-02-05T11:00:01.533Z,15.539894179894178
2023-02-05T11:05:01.488Z,15.73757671957672
2023-02-05T11:10:01.524Z,19.633777777777777
2023-02-05T11:15:01.763Z,20.051269841269843
2023-02-05T11:20:01.680Z,22.072539682539684
2023-02-05T11:25:01.585Z,21.51141798941799
2023-02-05T11:30:01.689Z,21.144328042328045
2023-02-05T11:35:01.596Z,17.575079365079365
2023-02-05T11:40:01.600Z,15.05384126984127
2023-02-05T11:45:01.621Z,14.881174603174602
2023-02-05T11:50:01.577Z,15.583820105820106
2023-02-05T11:55:01.597Z,16.622592592592593
2023-02-05T12:00:01.638Z,17.01121693121693
2023-02-05T12:05:01.649Z,19.653333333333332
2023-02-05T12:10:01.581Z,24.145968253968253
2023-02-05T12:15:01.569Z,30.27968253968254
2023-02-05T12:20:01.689Z,27.08028571428571
2023-02-05T12:25:01.535Z,29.955576719576722
2023-02-05T12:30:01.585Z,21.921640211640213
2023-02-05T12:35:01.580Z,20.703291005291007
2023-02-05T12:40:01.752Z,30.355269841269838
2023-02-05T12:45:01.572Z,42.32421164021164
2023-02-05T12:50:01.531Z,38.995174603174604
2023-02-05T12:55:01.687Z,50.95648677248678
2023-02-05T13:00:01.596Z,26.949227513227513
2023-02-05T13:05:01.676Z,17.853195767195768
2023-02-05T13:10:01.666Z,33.22751322751323
2023-02-05T13:15:01.744Z,20.123227513227512
2023-02-05T13:20:01.654Z,15.77141798941799
2023-02-05T13:25:01.646Z,18.043079365079368
2023-02-05T13:30:03.542Z,29.302455026455025
2023-02-05T13:35:02.000Z,42.710328042328044
2023-02-05T13:40:01.581Z,47.64035978835979
2023-02-05T13:45:01.571Z,42.741227513227514
2023-02-05T13:50:01.699Z,42.858444444444444
2023-02-05T13:55:01.662Z,15.508179894179897
2023-02-05T14:00:01.714Z,11.368296296296297
2023-02-05T14:05:01.619Z,23.386179894179897
2023-02-05T14:10:01.779Z,14.817925925925927
2023-02-05T14:15:01.638Z,7.895989417989418
2023-02-05T14:20:01.680Z,6.844783068783069
2023-02-05T14:25:01.641Z,5.380814814814816
2023-02-05T14:30:01.835Z,4.115174603174603
2023-02-05T14:35:01.674Z,3.6712804232804235
2023-02-05T14:40:01.654Z,5.7208359788359795
2023-02-05T14:45:01.725Z,5.629904761904762
2023-02-05T14:50:01.643Z,3.5103809523809524
2023-02-05T14:55:01.661Z,3.167820105820106
2023-02-05T15:00:01.713Z,2.6526455026455027
2023-02-05T15:05:02.000Z,2.3384021164021167
2023-02-05T15:10:01.676Z,2.2310264550264547
2023-02-05T15:15:01.689Z,1.6255978835978835
2023-02-05T15:20:01.674Z,0.8715026455026454
2023-02-05T15:25:01.809Z,0.2705714285714286
2023-02-05T15:30:01.745Z,0
2023-02-05T15:35:01.692Z,0
2023-02-05T15:40:01.926Z,0
2023-02-05T15:45:01.700Z,0
2023-02-05T15:50:01.711Z,0
2023-02-05T15:55:01.779Z,0
2023-02-05T16:00:02.200Z,0
2023-02-05T16:05:01.769Z,0
2023-02-05T16:10:01.715Z,0
2023-02-05T16:15:01.728Z,0
2023-02-05T16:20:01.973Z,0
2023-02-05T16:25:01.798Z,0
2023-02-05T16:30:02.097Z,0
2023-02-05T16:35:01.777Z,0
2023-02-05T16:40:01.961Z,0
2023-02-05T16:45:01.711Z,0
2023-02-05T16:50:01.804Z,0
2023-02-05T16:55:03.793Z,0
2023-02-05T17:00:01.862Z,0
2023-02-05T17:05:01.817Z,0
2023-02-05T17:10:01.841Z,0
2023-02-05T17:15:01.922Z,0
2023-02-05T17:20:01.783Z,0
2023-02-05T17:25:01.808Z,0
2023-02-05T17:30:01.842Z,0
2023-02-05T17:35:02.052Z,0
2023-02-05T17:40:01.830Z,0
2023-02-05T17:45:01.943Z,0
2023-02-05T17:50:01.926Z,0
2023-02-05T17:55:01.828Z,0
2023-02-05T18:00:01.904Z,0
2023-02-05T18:05:01.887Z,0
2023-02-05T18:10:01.985Z,0
2023-02-05T18:15:01.854Z,0
2023-02-05T18:20:01.879Z,0
2023-02-05T18:25:01.936Z,0
2023-02-05T18:30:02.041Z,0
2023-02-05T18:35:01.869Z,0
2023-02-05T18:40:01.858Z,0
2023-02-05T18:45:01.917Z,0
2023-02-05T18:50:02.028Z,0
2023-02-05T18:55:01.935Z,0
2023-02-05T19:00:01.948Z,0
2023-02-05T19:05:02.124Z,0
2023-02-05T19:10:01.882Z,0
2023-02-05T19:15:01.920Z,0
2023-02-05T19:20:01.969Z,0
2023-02-05T19:25:02.071Z,0
2023-02-05T19:30:01.935Z,0
2023-02-05T19:35:01.966Z,0
2023-02-05T19:40:02.005Z,0
2023-02-05T19:45:02.056Z,0
2023-02-05T19:50:01.966Z,0
2023-02-05T19:55:01.914Z,0
2023-02-05T20:00:01.998Z,0
2023-02-05T20:05:02.250Z,0
2023-02-05T20:10:01.970Z,0
2023-02-05T20:15:02.028Z,0
2023-02-05T20:20:12.541Z,0
2023-02-05T20:25:02.139Z,0
2023-02-05T20:30:01.962Z,0
2023-02-05T20:35:01.934Z,0
2023-02-05T20:40:02.127Z,0
2023-02-05T20:45:02.070Z,0
2023-02-05T20:50:01.937Z,0
2023-02-05T20:55:02.066Z,0
2023-02-05T21:00:02.161Z,0
2023-02-05T21:05:02.005Z,0
2023-02-05T21:10:02.565Z,0
2023-02-05T21:15:01.968Z,0
2023-02-05T21:20:03.934Z,0
2023-02-05T21:25:02.012Z,0
2023-02-05T21:30:02.053Z,0
2023-02-05T21:35:02.085Z,0
2023-02-05T21:40:09.012Z,0
2023-02-05T21:45:02.033Z,0
2023-02-05T21:50:02.092Z,0
2023-02-05T21:55:01.993Z,0
2023-02-05T22:00:02.261Z,0
2023-02-05T22:05:02.098Z,0
2023-02-05T22:10:02.107Z,0
2023-02-05T22:15:02.088Z,0
2023-02-05T22:20:02.030Z,0
2023-02-05T22:25:02.088Z,0
2023-02-05T22:30:02.119Z,0
2023-02-05T22:35:02.284Z,0
2023-02-05T22:40:02.067Z,0
2023-02-05T22:45:02.034Z,0
2023-02-05T22:50:02.124Z,0
2023-02-05T22:55:02.267Z,0
2023-02-05T23:00:02.124Z,0
2023-02-05T23:05:02.133Z,0
2023-02-05T23:10:02.100Z,0
2023-02-05T23:15:02.264Z,0
2023-02-05T23:20:02.091Z,0
2023-02-05T23:25:02.134Z,0
2023-02-05T23:30:02.274Z,0
2023-02-05T23:35:02.113Z,0
2023-02-05T23:40:02.111Z,0
2023-02-05T23:45:02.111Z,0
2023-02-05T23:50:02.248Z,0
2023-02-05T23:55:02.201Z,0
